Time;durP1;ratioP1;P1;durP2;ratioP2;P2;SDS_P1;SDS_P2;PMS_P1;PMS_P2;Temp;Humidity;BMP_temperature;BMP_pressure;BME280_temperature;BME280_humidity;BME280_pressure;Samples;Min_cycle;Max_cycle;Signal;HPM_P1;HPM_P2
2021/07/10 00:00:12;;;;;;;28.92;17.23;;;;;;;15.04;100.00;101667.63;4965934;28;20202;-80
2021/07/10 00:02:38;;;;;;;25.17;15.85;;;;;;;15.12;100.00;101658.94;4973515;28;20045;-81
2021/07/10 00:05:06;;;;;;;38.20;17.20;;;;;;;15.06;100.00;101667.47;4984925;28;20045;-81
2021/07/10 00:07:32;;;;;;;31.13;17.25;;;;;;;14.97;100.00;101666.56;4979301;28;20052;-81
2021/07/10 00:09:59;;;;;;;32.38;16.90;;;;;;;14.92;100.00;101661.75;4956161;28;20434;-80
2021/07/10 00:12:25;;;;;;;25.83;17.63;;;;;;;14.93;100.00;101657.31;4957703;28;20157;-82
2021/07/10 00:14:51;;;;;;;25.58;16.30;;;;;;;14.91;100.00;101654.00;4957574;28;20145;-80
2021/07/10 00:17:16;;;;;;;28.95;15.98;;;;;;;14.89;100.00;101666.53;4978005;28;20088;-81
2021/07/10 00:19:42;;;;;;;33.50;17.08;;;;;;;14.85;100.00;101655.44;4957311;28;20038;-81
2021/07/10 00:22:07;;;;;;;25.80;16.77;;;;;;;14.84;100.00;101660.84;4987806;28;20034;-81
2021/07/10 00:24:33;;;;;;;27.50;16.35;;;;;;;14.81;100.00;101651.44;4955195;28;20049;-81
2021/07/10 00:26:59;;;;;;;29.17;16.45;;;;;;;14.81;100.00;101655.91;4971318;28;20261;-80
2021/07/10 00:29:25;;;;;;;27.15;16.67;;;;;;;14.85;100.00;101651.97;4974275;28;20112;-81
2021/07/10 00:31:51;;;;;;;29.45;16.85;;;;;;;14.82;100.00;101641.69;4965721;28;20030;-79
2021/07/10 00:34:24;;;;;;;28.08;16.77;;;;;;;14.83;100.00;101644.19;4970666;28;20073;-82
2021/07/10 00:36:50;;;;;;;26.15;17.08;;;;;;;14.83;100.00;101648.66;4966084;28;20743;-80
2021/07/10 00:39:15;;;;;;;25.00;16.73;;;;;;;14.78;100.00;101642.00;4952190;28;20061;-80
2021/07/10 00:41:41;;;;;;;25.83;16.95;;;;;;;14.75;100.00;101636.22;4988974;28;20034;-82
2021/07/10 00:44:06;;;;;;;28.58;17.50;;;;;;;14.77;100.00;101645.63;4965953;28;20040;-81
2021/07/10 00:46:32;;;;;;;30.63;17.40;;;;;;;14.72;100.00;101639.13;4983633;28;20045;-82
2021/07/10 00:48:57;;;;;;;30.45;17.83;;;;;;;14.75;100.00;101636.22;4989213;28;20034;-83
2021/07/10 00:51:23;;;;;;;24.88;16.35;;;;;;;14.75;100.00;101636.22;4978875;28;20030;-84
2021/07/10 00:53:49;;;;;;;27.50;16.88;;;;;;;14.62;100.00;101628.66;4988590;28;20044;-82
2021/07/10 00:56:15;;;;;;;31.23;17.52;;;;;;;14.62;100.00;101623.38;4970046;28;20044;-81
2021/07/10 00:58:41;;;;;;;29.90;17.65;;;;;;;14.67;100.00;101620.28;4975081;28;20045;-82
2021/07/10 01:01:07;;;;;;;31.70;17.58;;;;;;;14.62;100.00;101607.53;4968872;28;20092;-82
2021/07/10 01:03:34;;;;;;;31.15;18.67;;;;;;;14.69;100.00;101619.16;4955019;28;20042;-81
2021/07/10 01:06:01;;;;;;;34.17;19.67;;;;;;;14.65;100.00;101609.84;4964995;28;20113;-80
2021/07/10 01:08:27;;;;;;;31.52;18.77;;;;;;;14.59;100.00;101599.91;4956583;28;20034;-82
2021/07/10 01:10:53;;;;;;;31.27;17.15;;;;;;;14.63;100.00;101614.47;4973863;28;20039;-81
2021/07/10 01:13:19;;;;;;;32.63;19.33;;;;;;;14.60;100.00;101609.50;4986683;28;20046;-80
2021/07/10 01:15:45;;;;;;;26.60;18.05;;;;;;;14.67;100.00;101602.63;4960439;28;20042;-82
2021/07/10 01:18:11;;;;;;;29.90;19.02;;;;;;;14.63;100.00;101606.53;4979478;28;20026;-81
2021/07/10 01:20:46;;;;;;;29.27;18.75;;;;;;;14.63;100.00;101601.25;4971228;28;20101;-83
2021/07/10 01:23:12;;;;;;;29.30;19.15;;;;;;;14.57;100.00;101599.25;4969784;28;20034;-81
2021/07/10 01:25:38;;;;;;;30.83;18.35;;;;;;;14.58;100.00;101596.44;4974226;28;20125;-82
2021/07/10 01:28:03;;;;;;;30.60;18.08;;;;;;;14.54;100.00;101589.78;4958822;28;20510;-83
2021/07/10 01:30:29;;;;;;;29.30;18.00;;;;;;;14.56;100.00;101595.75;4956889;28;20034;-81
2021/07/10 01:32:56;;;;;;;29.30;19.30;;;;;;;14.53;100.00;101598.69;4973684;28;20646;-82
2021/07/10 01:35:22;;;;;;;26.70;18.60;;;;;;;14.55;100.00;101595.88;4959722;28;20038;-82
2021/07/10 01:37:48;;;;;;;25.60;17.95;;;;;;;14.58;100.00;101588.53;4961002;28;20034;-84
2021/07/10 01:40:18;;;;;;;24.40;17.98;;;;;;;14.53;100.00;101589.94;4953454;28;20026;-81
2021/07/10 01:42:44;;;;;;;33.00;18.60;;;;;;;14.51;100.00;101590.09;4958959;28;20034;-82
2021/07/10 01:45:11;;;;;;;27.58;18.35;;;;;;;14.48;100.00;101584.28;4956654;28;20038;-81
2021/07/10 01:47:37;;;;;;;28.83;17.83;;;;;;;14.48;100.00;101579.00;4973352;28;20096;-81
2021/07/10 01:50:05;;;;;;;31.83;19.30;;;;;;;14.34;100.00;101570.63;4972857;28;20042;-82
2021/07/10 01:52:31;;;;;;;27.77;17.77;;;;;;;14.32;100.00;101577.88;4953267;28;20130;-82
2021/07/10 01:54:56;;;;;;;29.95;19.52;;;;;;;14.27;100.00;101574.84;4970686;28;20474;-82
2021/07/10 01:57:22;;;;;;;29.90;19.65;;;;;;;14.26;100.00;101575.00;4956801;28;20038;-80
2021/07/10 01:59:47;;;;;;;33.15;19.40;;;;;;;14.22;100.00;101569.19;4967507;28;20046;-80
2021/07/10 02:02:13;;;;;;;34.90;19.95;;;;;;;14.16;100.00;101575.06;4981127;28;20461;-82
2021/07/10 02:04:46;;;;;;;32.13;18.60;;;;;;;14.16;100.00;101580.34;4969202;28;20041;-83
2021/07/10 02:07:13;;;;;;;31.23;19.52;;;;;;;14.22;100.00;101582.38;4975717;28;20203;-82
2021/07/10 02:09:39;;;;;;;36.75;20.20;;;;;;;14.16;100.00;101575.06;4973584;28;20034;-83
2021/07/10 02:12:05;;;;;;;36.75;19.80;;;;;;;14.07;100.00;101574.19;4972828;28;20048;-82
2021/07/10 02:14:30;;;;;;;29.35;19.20;;;;;;;14.05;100.00;101570.81;4977258;28;20523;-83
2021/07/10 02:16:56;;;;;;;34.10;19.27;;;;;;;14.03;100.00;101564.88;4956772;28;20527;-83
2021/07/10 02:19:21;;;;;;;33.25;19.60;;;;;;;14.01;100.00;101567.69;4957091;28;20042;-83
2021/07/10 02:21:47;;;;;;;34.17;19.55;;;;;;;14.02;100.00;101569.31;4966707;28;20101;-82
2021/07/10 02:24:12;;;;;;;34.30;19.73;;;;;;;14.01;100.00;101567.69;4986844;28;20041;-82
2021/07/10 02:26:38;;;;;;;34.95;20.13;;;;;;;13.98;100.00;101553.97;4961940;28;20038;-82
2021/07/10 02:29:07;;;;;;;36.60;19.40;;;;;;;13.89;100.00;101558.31;4978141;28;20447;-82
2021/07/10 02:31:34;;;;;;;30.50;18.73;;;;;;;13.90;100.00;101567.91;4955884;28;20034;-82
2021/07/10 02:33:59;;;;;;;31.95;19.33;;;;;;;13.85;100.00;101569.31;4979102;28;20507;-80
2021/07/10 02:36:25;;;;;;;29.33;18.90;;;;;;;13.91;100.00;101568.72;4980987;28;20041;-80
2021/07/10 02:38:50;;;;;;;26.75;17.63;;;;;;;13.88;100.00;101561.09;4969786;28;20114;-82
2021/07/10 02:41:16;;;;;;;27.17;18.65;;;;;;;13.88;100.00;101561.09;4988822;28;20042;-83
2021/07/10 02:43:41;;;;;;;36.42;18.70;;;;;;;13.85;100.00;101558.75;4956936;28;20559;-80
2021/07/10 02:46:08;;;;;;;33.95;18.98;;;;;;;13.75;100.00;101557.00;4969904;28;20062;-81
2021/07/10 02:48:33;;;;;;;29.67;18.55;;;;;;;13.76;100.00;101553.38;4972283;28;20030;-80
2021/07/10 02:50:58;;;;;;;28.95;18.15;;;;;;;13.74;100.00;101557.16;4958719;28;20044;-83
2021/07/10 02:53:24;;;;;;;30.38;18.00;;;;;;;13.70;100.00;101558.44;4988763;28;20077;-83
2021/07/10 02:55:49;;;;;;;28.55;18.08;;;;;;;13.67;100.00;101559.53;4977653;28;20038;-82
2021/07/10 02:58:15;;;;;;;37.15;19.10;;;;;;;13.70;100.00;101563.69;4977861;28;20034;-81
2021/07/10 03:00:41;;;;;;;28.70;17.77;;;;;;;13.74;100.00;101552.69;4961116;28;20022;-83
2021/07/10 03:03:06;;;;;;;36.72;20.67;;;;;;;13.70;100.00;101561.06;4957206;28;20156;-81
2021/07/10 03:05:33;;;;;;;30.10;19.20;;;;;;;13.75;100.00;101553.53;4984186;28;20030;-83
2021/07/10 03:08:04;;;;;;;31.20;18.77;;;;;;;13.77;100.00;101559.50;4975197;28;20803;-84
2021/07/10 03:10:30;;;;;;;33.92;18.40;;;;;;;13.74;100.00;101557.97;4975247;28;20030;-81
2021/07/10 03:12:57;;;;;;;37.20;19.17;;;;;;;13.68;100.00;101549.84;4981679;28;20035;-81
2021/07/10 03:15:24;;;;;;;33.90;19.40;;;;;;;13.70;100.00;101558.44;4974756;28;20053;-80
2021/07/10 03:17:50;;;;;;;27.00;18.15;;;;;;;13.67;100.00;101558.72;4973710;28;20089;-82
2021/07/10 03:20:18;;;;;;;31.88;18.15;;;;;;;13.69;100.00;101554.13;4977663;28;20037;-82
2021/07/10 03:22:45;;;;;;;30.63;19.08;;;;;;;13.70;100.00;101558.44;4956593;28;20556;-82
2021/07/10 03:25:12;;;;;;;39.15;19.17;;;;;;;13.73;100.00;101564.25;4971835;28;20031;-83
2021/07/10 03:27:38;;;;;;;31.30;18.95;;;;;;;13.71;100.00;101552.16;4991117;28;20108;-83
2021/07/10 03:30:08;;;;;;;25.63;17.95;;;;;;;13.74;100.00;101554.53;4961157;28;20034;-84
2021/07/10 03:32:34;;;;;;;30.50;18.70;;;;;;;13.86;100.00;101560.41;4964845;28;20030;-85
2021/07/10 03:34:59;;;;;;;30.45;18.42;;;;;;;13.80;100.00;101538.91;4976446;28;20408;-83
2021/07/10 03:37:25;;;;;;;24.15;17.85;;;;;;;13.96;100.00;101554.09;4994360;28;20507;-82
2021/07/10 03:39:50;;;;;;;36.72;19.25;;;;;;;13.94;100.00;101561.34;4961507;28;20561;-83
2021/07/10 03:42:16;;;;;;;29.05;18.77;;;;;;;13.96;100.00;101553.28;4977531;28;20134;-82
2021/07/10 03:44:41;;;;;;;28.65;19.27;;;;;;;13.99;100.00;101555.59;4969600;28;20484;-81
2021/07/10 03:47:07;;;;;;;32.50;18.90;;;;;;;13.99;100.00;101563.53;4956905;28;20085;-82
2021/07/10 03:49:32;;;;;;;37.47;20.25;;;;;;;13.98;100.00;101560.06;4969706;28;20088;-83
2021/07/10 03:51:58;;;;;;;39.83;20.00;;;;;;;13.95;100.00;101560.34;4965604;28;20045;-83
2021/07/10 03:54:24;;;;;;;33.25;19.35;;;;;;;14.04;100.00;101563.09;4978872;28;20058;-80
2021/07/10 03:56:49;;;;;;;27.08;18.60;;;;;;;14.01;100.00;101562.41;4957204;28;20509;-80
2021/07/10 03:59:15;;;;;;;36.30;19.55;;;;;;;13.98;100.00;101562.69;4954103;28;20124;-82
2021/07/10 04:01:41;;;;;;;28.63;19.85;;;;;;;14.01;100.00;101566.84;4975753;28;20104;-82
2021/07/10 04:04:07;;;;;;;32.33;20.80;;;;;;;14.02;100.00;101566.69;4978666;28;20147;-83
2021/07/10 04:06:33;;;;;;;32.83;19.40;;;;;;;14.05;100.00;101565.56;4957108;28;20030;-84
2021/07/10 04:08:58;;;;;;;27.13;18.63;;;;;;;14.12;100.00;101576.34;4984133;28;20432;-83
2021/07/10 04:11:24;;;;;;;33.88;19.10;;;;;;;14.14;100.00;101567.28;4975322;28;20053;-81
2021/07/10 04:13:49;;;;;;;28.38;18.02;;;;;;;14.09;100.00;101566.94;4992877;28;20047;-82
2021/07/10 04:16:15;;;;;;;25.83;18.33;;;;;;;14.06;100.00;101566.41;5011090;28;20037;-82
2021/07/10 04:18:40;;;;;;;33.08;18.48;;;;;;;14.09;100.00;101558.16;4962564;28;20041;-80
2021/07/10 04:21:06;;;;;;;26.10;17.80;;;;;;;14.09;100.00;101555.53;4958803;28;20038;-83
2021/07/10 04:23:32;;;;;;;28.02;18.20;;;;;;;14.11;100.00;101557.06;4960246;28;20037;-81
2021/07/10 04:25:58;;;;;;;39.78;18.73;;;;;;;14.12;100.00;101550.78;4972686;28;20031;-82
2021/07/10 04:28:23;;;;;;;31.13;18.52;;;;;;;14.07;100.00;101554.84;4988724;28;20061;-80
2021/07/10 04:30:49;;;;;;;39.33;19.10;;;;;;;14.08;100.00;101554.72;4972665;28;20069;-83
2021/07/10 04:33:15;;;;;;;32.00;19.10;;;;;;;14.09;100.00;101556.38;4976233;28;20421;-82
2021/07/10 04:35:40;;;;;;;25.85;17.50;;;;;;;14.15;100.00;101557.59;4960574;28;20042;-81
2021/07/10 04:38:06;;;;;;;29.55;18.05;;;;;;;14.18;100.00;101560.75;4973669;28;20091;-81
2021/07/10 04:40:32;;;;;;;31.38;18.05;;;;;;;14.27;100.00;101563.47;4949486;28;20031;-82
2021/07/10 04:42:57;;;;;;;32.80;17.52;;;;;;;14.28;100.00;101557.19;4969390;28;20038;-81
2021/07/10 04:45:23;;;;;;;27.45;17.50;;;;;;;14.26;100.00;101562.66;4951034;28;20031;-81
2021/07/10 04:47:48;;;;;;;26.50;16.90;;;;;;;14.37;100.00;101557.16;4975757;28;20078;-83
2021/07/10 04:50:16;;;;;;;25.75;16.23;;;;;;;14.42;100.00;101572.50;4972595;28;20523;-81
2021/07/10 04:52:42;;;;;;;33.67;16.67;;;;;;;14.46;100.00;101568.59;4958734;28;20038;-79
2021/07/10 04:55:10;;;;;;;23.95;15.32;;;;;;;14.50;100.00;101566.47;4996241;28;20496;-82
2021/07/10 04:57:35;;;;;;;21.95;15.25;;;;;;;14.52;100.00;101577.72;5000119;28;20093;-82
2021/07/10 05:00:01;;;;;;;21.17;14.35;;;;;;;14.52;100.00;101581.19;4972900;28;20620;-83
2021/07/10 05:02:26;;;;;;;23.92;14.75;;;;;;;14.61;100.00;101563.63;4987655;28;20062;-84
2021/07/10 05:04:52;;;;;;;21.15;14.80;;;;;;;14.61;100.00;101561.00;4975367;28;20030;-82
2021/07/10 05:07:17;;;;;;;23.52;14.68;;;;;;;14.66;100.00;101563.19;4991936;28;20113;-82
2021/07/10 05:09:43;;;;;;;24.33;14.52;;;;;;;14.58;100.00;101548.09;4959758;28;20042;-81
2021/07/10 05:12:09;;;;;;;19.60;13.52;;;;;;;14.74;100.00;101569.34;4974569;28;20038;-81
2021/07/10 05:14:34;;;;;;;21.27;13.15;;;;;;;14.78;100.00;101559.28;4988545;28;20035;-82
2021/07/10 05:17:00;;;;;;;18.25;12.88;;;;;;;14.83;100.00;101564.94;4943930;28;20433;-81
2021/07/10 05:19:25;;;;;;;19.05;13.82;;;;;;;14.90;100.00;101571.28;4978247;28;20045;-82
2021/07/10 05:21:51;;;;;;;18.10;12.80;;;;;;;14.83;100.00;101558.84;4959337;28;20068;-82
2021/07/10 05:24:16;;;;;;;18.42;12.88;;;;;;;14.88;100.00;101561.84;4956328;28;20062;-83
2021/07/10 05:26:42;;;;;;;19.92;12.75;;;;;;;14.86;100.00;101566.44;4956102;28;20464;-82
2021/07/10 05:29:07;;;;;;;21.83;12.77;;;;;;;14.90;100.00;101560.72;4968172;28;20038;-85
2021/07/10 05:31:33;;;;;;;21.00;12.85;;;;;;;14.85;100.00;101562.16;4973919;28;20069;-81
2021/07/10 05:33:59;;;;;;;20.30;13.15;;;;;;;14.87;100.00;101568.94;4969278;28;20611;-83
2021/07/10 05:36:24;;;;;;;18.58;12.82;;;;;;;14.86;100.00;101566.44;4972007;28;20631;-82
2021/07/10 05:38:50;;;;;;;19.50;12.88;;;;;;;14.81;100.00;101560.81;4967760;28;20061;-83
2021/07/10 05:41:15;;;;;;;19.02;12.30;;;;;;;14.83;100.00;101558.84;4955837;28;20574;-84
2021/07/10 05:43:41;;;;;;;18.55;12.85;;;;;;;14.90;100.00;101565.16;4957650;28;20069;-84
2021/07/10 05:46:06;;;;;;;18.20;11.80;;;;;;;14.90;100.00;101562.50;4947701;28;20044;-84
2021/07/10 05:48:33;;;;;;;19.63;12.50;;;;;;;15.04;100.00;101559.31;4955595;28;20447;-84
2021/07/10 05:50:58;;;;;;;23.48;12.15;;;;;;;15.06;100.00;101553.88;4953450;28;20042;-85
2021/07/10 05:53:24;;;;;;;15.55;11.95;;;;;;;15.06;100.00;101559.97;4979737;28;20073;-84
2021/07/10 05:55:49;;;;;;;18.02;11.77;;;;;;;15.08;100.00;101562.47;4966110;28;20073;-84
2021/07/10 05:58:15;;;;;;;20.40;11.55;;;;;;;15.13;100.00;101562.84;4958611;28;20500;-84
2021/07/10 06:00:42;;;;;;;18.88;11.25;;;;;;;15.32;100.00;101570.53;4957520;28;20041;-84
2021/07/10 06:03:07;;;;;;;18.33;12.13;;;;;;;15.50;100.00;101564.31;4971668;28;20100;-81
2021/07/10 06:05:33;;;;;;;14.75;10.98;;;;;;;15.72;100.00;101569.03;4969028;28;20480;-83
2021/07/10 06:07:58;;;;;;;13.52;9.80;;;;;;;15.89;100.00;101566.47;4952264;28;20118;-81
2021/07/10 06:10:24;;;;;;;16.55;11.13;;;;;;;16.05;100.00;101555.09;4967637;28;20038;-83
2021/07/10 06:12:50;;;;;;;14.02;10.02;;;;;;;16.05;99.79;101563.03;4967202;28;20128;-82
2021/07/10 06:15:17;;;;;;;14.25;10.20;;;;;;;16.11;99.67;101575.63;4971918;28;20122;-83
2021/07/10 06:17:43;;;;;;;18.33;10.27;;;;;;;16.13;99.60;101584.25;4959663;28;20040;-83
2021/07/10 06:20:11;;;;;;;12.00;9.77;;;;;;;16.16;98.71;101568.03;4978423;28;20034;-82
2021/07/10 06:22:37;;;;;;;14.52;9.63;;;;;;;16.36;98.36;101568.56;4971021;28;20053;-83
2021/07/10 06:25:05;;;;;;;13.48;8.70;;;;;;;16.34;94.94;101576.66;4957875;28;20062;-84
2021/07/10 06:27:31;;;;;;;13.40;9.25;;;;;;;16.47;97.33;101583.28;4947496;28;20038;-82
2021/07/10 06:29:56;;;;;;;11.52;7.68;;;;;;;16.50;94.80;101582.94;4989792;28;20045;-82
2021/07/10 06:32:22;;;;;;;13.52;7.97;;;;;;;16.59;96.13;101579.31;4953694;28;20039;-83
2021/07/10 06:34:47;;;;;;;12.13;8.32;;;;;;;16.66;95.35;101575.00;4950712;28;20041;-82
2021/07/10 06:37:13;;;;;;;16.60;9.40;;;;;;;16.73;100.00;101577.84;4944297;28;20483;-82
2021/07/10 06:39:38;;;;;;;12.77;8.52;;;;;;;16.86;96.54;101591.44;4974249;28;20508;-82
2021/07/10 06:42:04;;;;;;;9.02;6.97;;;;;;;16.81;92.29;101583.13;4974656;28;20042;-83
2021/07/10 06:44:30;;;;;;;14.93;8.15;;;;;;;16.95;96.63;101589.56;4965353;28;20117;-83
2021/07/10 06:46:55;;;;;;;13.07;8.07;;;;;;;17.06;98.25;101585.75;4988513;28;20061;-83
2021/07/10 06:49:21;;;;;;;10.75;7.50;;;;;;;17.16;94.36;101601.47;4978964;28;20061;-84
2021/07/10 06:51:47;;;;;;;10.02;7.65;;;;;;;17.13;95.38;101595.50;4971411;28;20680;-83
2021/07/10 06:54:13;;;;;;;15.15;7.20;;;;;;;17.09;93.70;101591.56;4974151;28;20061;-83
2021/07/10 06:56:38;;;;;;;15.00;7.15;;;;;;;17.16;89.33;101593.50;4975180;28;20035;-83
2021/07/10 06:59:04;;;;;;;11.85;6.32;;;;;;;17.18;91.22;101589.72;4999075;28;20029;-82
2021/07/10 07:01:29;;;;;;;13.32;6.80;;;;;;;17.28;87.85;101600.13;4976158;28;20129;-80
2021/07/10 07:03:56;;;;;;;11.52;7.00;;;;;;;17.34;90.99;101591.47;4987809;28;20060;-80
2021/07/10 07:06:22;;;;;;;10.25;6.88;;;;;;;17.41;92.66;101599.59;4973619;28;20033;-81
2021/07/10 07:08:47;;;;;;;13.38;7.13;;;;;;;17.43;91.52;101598.41;4981222;28;20500;-83
2021/07/10 07:11:13;;;;;;;8.77;6.63;;;;;;;17.45;91.15;101604.38;4979249;28;20084;-81
2021/07/10 07:13:39;;;;;;;7.88;6.20;;;;;;;17.56;89.84;101611.16;4983188;28;20038;-81
2021/07/10 07:16:05;;;;;;;12.73;7.10;;;;;;;17.64;91.75;101611.09;4963635;28;20041;-81
2021/07/10 07:18:31;;;;;;;10.82;7.15;;;;;;;17.65;91.91;101622.53;4971114;28;20482;-82
2021/07/10 07:20:56;;;;;;;10.52;6.35;;;;;;;17.55;89.02;101624.56;4988570;28;20089;-83
2021/07/10 07:23:22;;;;;;;10.80;7.10;;;;;;;17.51;91.68;101624.91;4973675;28;20042;-84
2021/07/10 07:25:48;;;;;;;10.98;6.95;;;;;;;17.44;91.94;101628.41;4958075;28;20471;-81
2021/07/10 07:28:13;;;;;;;15.82;7.35;;;;;;;17.39;94.32;101633.41;4973640;28;20508;-83
2021/07/10 07:30:39;;;;;;;11.35;6.75;;;;;;;17.47;93.83;101636.03;4955988;28;20575;-82
2021/07/10 07:33:04;;;;;;;11.65;6.78;;;;;;;17.38;89.93;101635.22;4971201;28;20173;-82
2021/07/10 07:35:30;;;;;;;11.77;7.00;;;;;;;17.43;92.28;101627.59;4978939;28;20045;-83
2021/07/10 07:37:56;;;;;;;9.07;7.13;;;;;;;17.46;95.08;101629.91;4974378;28;20165;-81
2021/07/10 07:40:22;;;;;;;9.07;6.43;;;;;;;17.52;89.07;101615.16;4962883;28;20026;-83
2021/07/10 07:42:48;;;;;;;10.18;6.80;;;;;;;17.63;93.88;101619.22;4960941;28;20038;-83
2021/07/10 07:45:15;;;;;;;10.00;5.90;;;;;;;17.54;88.13;101607.00;4964878;28;20231;-84
2021/07/10 07:47:41;;;;;;;7.68;5.85;;;;;;;17.66;89.84;101622.38;4961539;28;20042;-82
2021/07/10 07:50:09;;;;;;;11.68;6.50;;;;;;;17.66;92.83;101625.03;4976700;28;20507;-81
2021/07/10 07:52:35;;;;;;;11.77;6.78;;;;;;;17.68;94.66;101624.84;4973515;28;20082;-82
2021/07/10 07:55:02;;;;;;;9.18;6.63;;;;;;;17.61;95.01;101622.09;4973333;28;20116;-85
2021/07/10 07:57:28;;;;;;;10.90;6.80;;;;;;;17.68;95.20;101627.50;4986859;28;20610;-83
2021/07/10 07:59:54;;;;;;;8.75;6.40;;;;;;;17.76;93.87;101627.47;4949427;28;20050;-81
2021/07/10 08:02:22;;;;;;;11.05;6.90;;;;;;;17.83;94.35;101622.31;4941749;28;20121;-81
2021/07/10 08:04:49;;;;;;;7.55;6.20;;;;;;;17.91;93.35;101630.25;4992878;28;20034;-82
2021/07/10 08:07:15;;;;;;;8.75;5.85;;;;;;;18.07;90.89;101632.84;4984942;28;20058;-82
2021/07/10 08:09:40;;;;;;;13.40;6.03;;;;;;;18.23;87.46;101639.91;4958467;28;20527;-82
2021/07/10 08:12:09;;;;;;;8.63;6.03;;;;;;;18.33;90.13;101636.16;4974599;28;20081;-80
2021/07/10 08:14:34;;;;;;;6.35;5.50;;;;;;;18.37;88.89;101635.66;4961102;28;20041;-82
2021/07/10 08:17:01;;;;;;;11.57;6.18;;;;;;;18.49;89.93;101625.44;4967599;28;20116;-83
2021/07/10 08:19:26;;;;;;;10.70;5.30;;;;;;;18.71;87.05;101629.09;4991520;28;20142;-82
2021/07/10 08:21:52;;;;;;;7.15;5.55;;;;;;;18.79;88.61;101628.19;4955502;28;20413;-82
2021/07/10 08:24:17;;;;;;;7.22;4.90;;;;;;;18.97;83.24;101635.88;4974770;28;20038;-82
2021/07/10 08:26:43;;;;;;;7.57;5.85;;;;;;;19.00;87.98;101628.34;4968574;28;20122;-82
2021/07/10 08:29:08;;;;;;;7.45;5.10;;;;;;;19.20;84.08;101638.50;4959868;28;20026;-82
2021/07/10 08:31:34;;;;;;;7.35;5.20;;;;;;;19.29;84.34;101644.53;4975763;28;20034;-83
2021/07/10 08:34:01;;;;;;;11.20;5.13;;;;;;;19.18;84.31;101636.00;4985224;28;20034;-83
2021/07/10 08:36:27;;;;;;;6.15;5.28;;;;;;;19.12;86.77;101641.22;4968368;28;20031;-82
2021/07/10 08:38:53;;;;;;;7.90;6.05;;;;;;;19.06;85.71;101638.28;4976090;28;20650;-84
2021/07/10 08:41:19;;;;;;;11.20;5.68;;;;;;;19.38;84.50;101646.09;4969511;28;20027;-82
2021/07/10 08:43:45;;;;;;;6.95;5.20;;;;;;;19.72;79.80;101650.03;4955897;28;20112;-83
2021/07/10 08:46:12;;;;;;;8.43;5.47;;;;;;;19.81;81.26;101643.63;4971875;28;20030;-82
2021/07/10 08:48:38;;;;;;;5.38;4.70;;;;;;;19.88;80.31;101641.88;4990055;28;20042;-83
2021/07/10 08:51:06;;;;;;;7.70;5.55;;;;;;;20.00;76.86;101634.25;4972362;28;20030;-84
2021/07/10 08:53:32;;;;;;;6.75;4.95;;;;;;;20.37;78.62;101646.53;4987222;28;20069;-81
2021/07/10 08:55:58;;;;;;;5.85;5.10;;;;;;;20.68;77.61;101639.25;4981257;28;20035;-82
2021/07/10 08:58:25;;;;;;;7.18;5.00;;;;;;;20.95;73.01;101633.13;4979543;28;20049;-83
2021/07/10 09:00:51;;;;;;;5.80;5.20;;;;;;;21.09;72.26;101635.91;4959277;28;20032;-83
2021/07/10 09:03:17;;;;;;;7.32;5.35;;;;;;;20.54;73.35;101636.44;4975189;28;20030;-82
2021/07/10 09:05:43;;;;;;;7.90;4.50;;;;;;;20.25;77.54;101620.56;4956342;28;20118;-82
2021/07/10 09:08:27;;;;;;;9.82;4.70;;;;;;;20.09;77.97;101626.97;4994294;28;20116;-83
2021/07/10 09:11:08;;;;;;;5.88;5.30;;;;;;;20.16;79.66;101631.34;4974418;28;20512;-84
2021/07/10 09:13:43;;;;;;;9.77;5.37;;;;;;;20.31;75.58;101636.63;4979467;28;20034;-84
2021/07/10 09:16:16;;;;;;;5.65;4.28;;;;;;;20.30;75.79;101624.31;4988614;28;20117;-85
2021/07/10 09:18:43;;;;;;;;;;;;;;;20.55;75.18;101623.94;4985563;28;20046;-84
2021/07/10 09:21:11;;;;;;;5.47;4.25;;;;;;;20.83;75.76;101625.84;4958439;28;19964;-84
2021/07/10 09:23:42;;;;;;;8.10;4.38;;;;;;;21.09;72.00;101625.22;4973215;28;20061;-82
2021/07/10 09:26:20;;;;;;;7.13;4.05;;;;;;;21.35;70.78;101614.72;4990749;28;20089;-83
2021/07/10 09:29:04;;;;;;;9.73;4.97;;;;;;;21.62;69.63;101622.06;4976162;28;20097;-85
2021/07/10 09:31:35;;;;;;;7.60;4.25;;;;;;;21.60;66.09;101624.94;4954941;28;20052;-84
2021/07/10 09:34:09;;;;;;;6.53;4.20;;;;;;;21.90;70.29;101620.13;4961637;28;20044;-81
2021/07/10 09:36:36;;;;;;;5.72;3.95;;;;;;;21.62;72.28;101622.88;4949806;28;20094;-84
2021/07/10 09:39:08;;;;;;;7.78;4.63;;;;;;;21.83;70.98;101618.47;4958634;28;20038;-81
2021/07/10 09:41:34;;;;;;;7.15;4.60;;;;;;;22.30;67.62;101624.78;5004251;28;20026;-84
2021/07/10 09:44:09;;;;;;;8.75;4.45;;;;;;;22.69;67.40;101618.66;4996806;28;20543;-81
2021/07/10 09:46:34;;;;;;;5.45;3.75;;;;;;;22.48;66.23;101624.19;4964399;28;20025;-83
2021/07/10 09:49:31;;;;;;;5.43;4.80;;;;;;;21.31;65.99;101621.47;4976499;28;20416;-81
2021/07/10 09:51:59;;;;;;;5.22;4.22;;;;;;;21.63;67.08;101626.41;4983544;28;20381;-83
2021/07/10 09:54:31;;;;;;;6.32;4.43;;;;;;;21.31;68.67;101634.81;4956950;28;20042;-84
2021/07/10 09:57:06;;;;;;;7.38;4.28;;;;;;;21.52;70.25;101622.44;5009916;28;20484;-84
2021/07/10 09:59:40;;;;;;;5.55;4.25;;;;;;;21.78;67.77;101621.75;4964488;28;20038;-83
2021/07/10 10:02:16;;;;;;;6.97;4.20;;;;;;;21.60;70.72;101630.28;4972259;28;20037;-79
2021/07/10 10:04:43;;;;;;;4.25;3.85;;;;;;;21.09;68.67;101641.22;4959797;28;20104;-81
2021/07/10 10:07:12;;;;;;;6.70;4.22;;;;;;;20.65;70.85;101634.34;4968469;28;20031;-80
2021/07/10 10:09:38;;;;;;;11.40;4.75;;;;;;;20.49;72.50;101636.19;4966163;28;20543;-83
2021/07/10 10:12:11;;;;;;;5.95;3.75;;;;;;;20.78;71.80;101631.78;4963529;28;20117;-83
2021/07/10 10:14:43;;;;;;;4.25;3.47;;;;;;;20.69;74.28;101641.75;4972128;28;20555;-83
2021/07/10 10:17:09;;;;;;;6.20;3.43;;;;;;;21.09;70.43;101641.22;4957835;28;20027;-82
2021/07/10 10:19:36;;;;;;;6.68;3.15;;;;;;;21.74;63.89;101642.66;4975140;28;20130;-84
2021/07/10 10:22:05;;;;;;;3.22;3.00;;;;;;;22.34;68.36;101632.19;4989837;28;20030;-83
2021/07/10 10:24:31;;;;;;;7.60;3.30;;;;;;;22.84;68.15;101636.34;4947455;28;20039;-83
2021/07/10 10:26:58;;;;;;;4.05;2.88;;;;;;;23.13;62.33;101633.25;4957215;28;20034;-84
2021/07/10 10:29:27;;;;;;;4.88;2.42;;;;;;;23.36;62.66;101628.47;4982468;28;20034;-82
2021/07/10 10:31:53;;;;;;;4.38;2.75;;;;;;;23.67;58.08;101627.75;4983198;28;20069;-83
2021/07/10 10:34:20;;;;;;;6.65;2.95;;;;;;;24.00;61.47;101626.81;4968673;28;20471;-83
2021/07/10 10:36:48;;;;;;;3.05;2.67;;;;;;;23.47;59.42;101631.34;4989223;28;20109;-83
2021/07/10 10:39:19;;;;;;;5.32;2.80;;;;;;;23.68;61.95;101635.59;4962918;28;20528;-84
2021/07/10 10:41:50;;;;;;;5.43;2.63;;;;;;;23.85;58.03;101637.81;4958674;28;20034;-83
2021/07/10 10:44:17;;;;;;;3.97;2.92;;;;;;;23.75;58.81;101632.84;4967799;28;20524;-83
2021/07/10 10:46:46;;;;;;;6.38;2.70;;;;;;;23.06;61.77;101637.81;4959823;28;20031;-83
2021/07/10 10:49:54;;;;;;;4.20;3.00;;;;;;;22.68;62.27;101643.75;4986717;28;20038;-82
2021/07/10 10:52:34;;;;;;;3.65;2.50;;;;;;;23.11;55.69;101642.50;4862562;29;20905;-82
2021/07/10 10:55:13;;;;;;;2.97;2.55;;;;;;;23.24;56.25;101639.81;4862641;29;20104;-82
2021/07/10 10:57:52;;;;;;;4.72;2.70;;;;;;;22.60;61.58;101641.25;4959610;28;20121;-82
2021/07/10 11:00:24;;;;;;;6.20;3.28;;;;;;;21.94;65.48;101645.44;4980556;28;20069;-82
2021/07/10 11:02:49;;;;;;;3.10;2.80;;;;;;;21.62;67.65;101643.44;4967603;28;20042;-82
2021/07/10 11:05:33;;;;;;;3.42;2.58;;;;;;;21.69;67.44;101642.44;4949273;28;20039;-83
2021/07/10 11:08:17;;;;;;;4.05;3.10;;;;;;;21.81;69.71;101639.19;4975139;28;20035;-83
2021/07/10 11:10:46;;;;;;;4.13;2.95;;;;;;;21.89;68.62;101641.72;4992226;28;20034;-84